Thurmont, Maryland
Current Conditions -  °F | °C
As of 3:35 AM on Saturday 25 Oct 2014 (Local Time) from KFDK Reporting Station
Light Snow Light Snow  
Wind Chill: 46°   Ceiling: Unl
Heat Index: 46°   Visibility: 10mi
Dew Point: 41°   Wind: 3mph
Humidity: 81%   Direction: 230°SW
Pressure: 29.99"   Gusts: NA
Location:  39.62°N, 77.41°W
Report Text: KFDK 250735Z AUTO 23003KT 10SM -SN CLR 08/05 A2999 RMK AO2
Loading
Personal Weather Stations






























Interactive Weather Map New forecast layout! Learn more

10-Day Weather Forecast

Advertisements
Track Severe Weather on mobile